sensor_id;sensor_type;location;lat;lon;timestamp;pressure;altitude;pressure_sealevel;temperature;humidity
20987;BME280;10652;50.306;8.570;2023-02-12T00:04:00;99996.19;;;5.13;100.00
20987;BME280;10652;50.306;8.570;2023-02-12T00:08:02;99991.00;;;5.18;100.00
20987;BME280;10652;50.306;8.570;2023-02-12T00:12:05;99990.22;;;5.25;100.00
20987;BME280;10652;50.306;8.570;2023-02-12T00:16:09;99984.13;;;5.28;100.00
20987;BME280;10652;50.306;8.570;2023-02-12T00:20:12;99989.34;;;5.28;100.00
20987;BME280;10652;50.306;8.570;2023-02-12T00:24:14;99996.28;;;5.27;100.00
20987;BME280;10652;50.306;8.570;2023-02-12T00:28:16;99985.00;;;5.30;100.00
20987;BME280;10652;50.306;8.570;2023-02-12T00:32:18;99984.13;;;5.26;100.00
20987;BME280;10652;50.306;8.570;2023-02-12T00:36:22;99986.72;;;5.25;100.00
20987;BME280;10652;50.306;8.570;2023-02-12T00:40:25;99970.22;;;5.27;100.00
20987;BME280;10652;50.306;8.570;2023-02-12T00:44:27;99978.06;;;5.29;100.00
20987;BME280;10652;50.306;8.570;2023-02-12T00:48:30;99983.25;;;5.27;100.00
20987;BME280;10652;50.306;8.570;2023-02-12T00:52:32;99984.16;;;5.31;100.00
20987;BME280;10652;50.306;8.570;2023-02-12T00:56:34;99980.72;;;5.39;100.00
20987;BME280;10652;50.306;8.570;2023-02-12T01:00:37;99985.06;;;5.42;100.00
20987;BME280;10652;50.306;8.570;2023-02-12T01:04:39;99989.47;;;5.49;100.00
20987;BME280;10652;50.306;8.570;2023-02-12T01:08:41;99979.03;;;5.52;100.00
20987;BME280;10652;50.306;8.570;2023-02-12T01:12:43;99980.75;;;5.50;100.00
20987;BME280;10652;50.306;8.570;2023-02-12T01:16:45;99978.13;;;5.45;100.00
20987;BME280;10652;50.306;8.570;2023-02-12T01:20:47;99978.16;;;5.47;100.00
20987;BME280;10652;50.306;8.570;2023-02-12T01:24:49;99979.88;;;5.45;100.00
20987;BME280;10652;50.306;8.570;2023-02-12T01:28:58;99978.13;;;5.44;100.00
20987;BME280;10652;50.306;8.570;2023-02-12T01:33:02;99973.75;;;5.37;100.00
20987;BME280;10652;50.306;8.570;2023-02-12T01:37:04;99969.41;;;5.34;100.00
20987;BME280;10652;50.306;8.570;2023-02-12T01:41:13;99972.03;;;5.36;100.00
20987;BME280;10652;50.306;8.570;2023-02-12T01:49:39;99979.00;;;5.40;100.00
20987;BME280;10652;50.306;8.570;2023-02-12T01:53:49;99982.44;;;5.36;100.00
20987;BME280;10652;50.306;8.570;2023-02-12T01:57:52;99975.50;;;5.35;100.00
20987;BME280;10652;50.306;8.570;2023-02-12T02:01:54;99970.28;;;5.38;100.00
20987;BME280;10652;50.306;8.570;2023-02-12T02:06:07;99968.53;;;5.37;100.00
20987;BME280;10652;50.306;8.570;2023-02-12T02:10:11;99978.13;;;5.39;100.00
20987;BME280;10652;50.306;8.570;2023-02-12T02:14:13;99979.00;;;5.43;100.00
20987;BME280;10652;50.306;8.570;2023-02-12T02:19:27;99971.16;;;5.38;100.00
20987;BME280;10652;50.306;8.570;2023-02-12T02:23:29;99970.31;;;5.47;100.00
20987;BME280;10652;50.306;8.570;2023-02-12T02:27:43;99967.72;;;5.47;100.00
20987;BME280;10652;50.306;8.570;2023-02-12T02:32:05;99961.66;;;5.51;100.00
20987;BME280;10652;50.306;8.570;2023-02-12T02:36:24;99960.81;;;5.53;100.00
20987;BME280;10652;50.306;8.570;2023-02-12T02:40:37;99960.81;;;5.53;100.00
20987;BME280;10652;50.306;8.570;2023-02-12T02:44:57;99965.16;;;5.53;100.00
20987;BME280;10652;50.306;8.570;2023-02-12T02:49:11;99966.84;;;5.51;100.00
20987;BME280;10652;50.306;8.570;2023-02-12T02:53:23;99959.91;;;5.48;100.00
20987;BME280;10652;50.306;8.570;2023-02-12T02:57:33;99964.19;;;5.33;100.00
20987;BME280;10652;50.306;8.570;2023-02-12T03:01:47;99965.84;;;5.23;100.00
20987;BME280;10652;50.306;8.570;2023-02-12T03:05:55;99958.94;;;5.25;100.00
20987;BME280;10652;50.306;8.570;2023-02-12T03:10:06;99961.50;;;5.18;100.00
20987;BME280;10652;50.306;8.570;2023-02-12T03:14:18;99964.09;;;5.19;100.00
20987;BME280;10652;50.306;8.570;2023-02-12T03:18:24;99964.16;;;5.27;100.00
20987;BME280;10652;50.306;8.570;2023-02-12T03:22:33;99958.06;;;5.28;100.00
20987;BME280;10652;50.306;8.570;2023-02-12T03:26:45;99966.78;;;5.31;100.00
20987;BME280;10652;50.306;8.570;2023-02-12T03:35:18;99965.94;;;5.34;100.00
20987;BME280;10652;50.306;8.570;2023-02-12T03:39:45;99972.06;;;5.40;100.00
20987;BME280;10652;50.306;8.570;2023-02-12T03:43:53;99976.38;;;5.38;100.00
20987;BME280;10652;50.306;8.570;2023-02-12T03:48:16;99976.38;;;5.41;100.00
20987;BME280;10652;50.306;8.570;2023-02-12T03:52:21;99978.16;;;5.47;100.00
20987;BME280;10652;50.306;8.570;2023-02-12T04:00:53;99986.84;;;5.49;100.00
20987;BME280;10652;50.306;8.570;2023-02-12T04:04:55;99982.50;;;5.51;100.00
20987;BME280;10652;50.306;8.570;2023-02-12T04:09:02;99992.94;;;5.51;100.00
20987;BME280;10652;50.306;8.570;2023-02-12T04:13:18;99987.72;;;5.51;100.00
20987;BME280;10652;50.306;8.570;2023-02-12T04:18:00;99991.22;;;5.56;100.00
20987;BME280;10652;50.306;8.570;2023-02-12T04:22:31;100001.69;;;5.62;100.00
20987;BME280;10652;50.306;8.570;2023-02-12T04:26:53;100000.81;;;5.65;100.00
20987;BME280;10652;50.306;8.570;2023-02-12T04:31:01;99999.97;;;5.67;100.00
20987;BME280;10652;50.306;8.570;2023-02-12T04:35:22;100004.28;;;5.65;100.00
20987;BME280;10652;50.306;8.570;2023-02-12T04:39:30;100005.16;;;5.64;100.00
20987;BME280;10652;50.306;8.570;2023-02-12T04:43:35;100006.91;;;5.65;100.00
20987;BME280;10652;50.306;8.570;2023-02-12T04:47:38;100001.63;;;5.56;100.00
20987;BME280;10652;50.306;8.570;2023-02-12T04:51:40;100006.84;;;5.59;100.00
20987;BME280;10652;50.306;8.570;2023-02-12T04:55:42;100002.53;;;5.64;100.00
20987;BME280;10652;50.306;8.570;2023-02-12T04:59:44;100009.50;;;5.64;100.00
20987;BME280;10652;50.306;8.570;2023-02-12T05:03:46;100003.44;;;5.63;100.00
20987;BME280;10652;50.306;8.570;2023-02-12T05:07:48;100003.41;;;5.60;100.00
20987;BME280;10652;50.306;8.570;2023-02-12T05:11:50;99997.31;;;5.64;100.00
20987;BME280;10652;50.306;8.570;2023-02-12T05:15:52;100002.53;;;5.64;100.00
20987;BME280;10652;50.306;8.570;2023-02-12T05:19:55;100003.44;;;5.66;100.00
20987;BME280;10652;50.306;8.570;2023-02-12T05:23:57;100006.84;;;5.53;100.00
20987;BME280;10652;50.306;8.570;2023-02-12T05:27:59;100005.03;;;5.38;100.00
20987;BME280;10652;50.306;8.570;2023-02-12T05:32:01;100003.25;;;5.27;100.00
20987;BME280;10652;50.306;8.570;2023-02-12T05:36:10;100005.78;;;5.16;100.00
20987;BME280;10652;50.306;8.570;2023-02-12T05:40:13;100012.81;;;5.26;100.00
20987;BME280;10652;50.306;8.570;2023-02-12T05:44:15;100005.03;;;5.35;100.00
20987;BME280;10652;50.306;8.570;2023-02-12T05:48:17;100006.78;;;5.38;100.00
20987;BME280;10652;50.306;8.570;2023-02-12T05:52:19;100016.38;;;5.43;100.00
20987;BME280;10652;50.306;8.570;2023-02-12T05:56:24;100015.50;;;5.46;100.00
20987;BME280;10652;50.306;8.570;2023-02-12T06:00:26;100021.59;;;5.51;100.00
20987;BME280;10652;50.306;8.570;2023-02-12T06:04:28;100020.78;;;5.58;100.00
20987;BME280;10652;50.306;8.570;2023-02-12T06:08:30;100021.63;;;5.54;100.00
20987;BME280;10652;50.306;8.570;2023-02-12T06:12:32;100021.59;;;5.48;100.00
20987;BME280;10652;50.306;8.570;2023-02-12T06:16:34;100020.72;;;5.44;100.00
20987;BME280;10652;50.306;8.570;2023-02-12T06:20:40;100025.00;;;5.33;100.00
20987;BME280;10652;50.306;8.570;2023-02-12T06:24:42;100029.31;;;5.27;100.00
20987;BME280;10652;50.306;8.570;2023-02-12T06:28:44;100032.72;;;5.23;100.00
20987;BME280;10652;50.306;8.570;2023-02-12T06:32:48;100025.88;;;5.34;100.00
20987;BME280;10652;50.306;8.570;2023-02-12T06:36:51;100039.78;;;5.39;100.00
20987;BME280;10652;50.306;8.570;2023-02-12T06:40:53;100045.06;;;5.48;100.00
20987;BME280;10652;50.306;8.570;2023-02-12T06:44:55;100037.25;;;5.49;100.00
20987;BME280;10652;50.306;8.570;2023-02-12T06:48:58;100041.59;;;5.49;100.00
20987;BME280;10652;50.306;8.570;2023-02-12T06:53:01;100049.38;;;5.46;100.00
20987;BME280;10652;50.306;8.570;2023-02-12T06:57:03;100045.94;;;5.51;100.00
20987;BME280;10652;50.306;8.570;2023-02-12T07:05:14;100047.78;;;5.68;100.00
20987;BME280;10652;50.306;8.570;2023-02-12T07:09:16;100053.84;;;5.68;100.00
20987;BME280;10652;50.306;8.570;2023-02-12T07:13:18;100060.81;;;5.69;100.00
20987;BME280;10652;50.306;8.570;2023-02-12T07:17:20;100062.53;;;5.63;100.00
20987;BME280;10652;50.306;8.570;2023-02-12T07:21:22;100070.34;;;5.63;100.00
20987;BME280;10652;50.306;8.570;2023-02-12T07:25:24;100071.22;;;5.69;100.00
20987;BME280;10652;50.306;8.570;2023-02-12T07:29:26;100069.53;;;5.77;100.00
20987;BME280;10652;50.306;8.570;2023-02-12T07:33:28;100075.63;;;5.79;100.00
20987;BME280;10652;50.306;8.570;2023-02-12T07:37:30;100083.50;;;5.85;100.00
20987;BME280;10652;50.306;8.570;2023-02-12T07:41:34;100081.75;;;5.87;100.00
20987;BME280;10652;50.306;8.570;2023-02-12T07:45:36;100083.53;;;5.94;100.00
20987;BME280;10652;50.306;8.570;2023-02-12T07:49:38;100087.00;;;5.99;100.00
20987;BME280;10652;50.306;8.570;2023-02-12T07:53:41;100086.09;;;5.91;100.00
20987;BME280;10652;50.306;8.570;2023-02-12T07:57:43;100087.84;;;5.91;100.00
20987;BME280;10652;50.306;8.570;2023-02-12T08:01:47;100084.31;;;5.75;100.00
20987;BME280;10652;50.306;8.570;2023-02-12T08:05:49;100097.31;;;5.66;100.00
20987;BME280;10652;50.306;8.570;2023-02-12T08:09:51;100093.84;;;5.67;100.00
20987;BME280;10652;50.306;8.570;2023-02-12T08:13:56;100097.41;;;5.87;100.00
20987;BME280;10652;50.306;8.570;2023-02-12T08:17:58;100102.69;;;6.02;100.00
20987;BME280;10652;50.306;8.570;2023-02-12T08:22:02;100107.91;;;6.05;100.00
20987;BME280;10652;50.306;8.570;2023-02-12T08:26:31;100110.59;;;6.21;100.00
20987;BME280;10652;50.306;8.570;2023-02-12T08:30:33;100112.47;;;6.57;100.00
20987;BME280;10652;50.306;8.570;2023-02-12T08:34:35;100104.69;;;6.85;100.00
20987;BME280;10652;50.306;8.570;2023-02-12T08:38:38;100101.19;;;6.86;100.00
20987;BME280;10652;50.306;8.570;2023-02-12T08:42:40;100107.28;;;6.84;100.00
20987;BME280;10652;50.306;8.570;2023-02-12T08:46:45;100106.41;;;6.91;100.00
20987;BME280;10652;50.306;8.570;2023-02-12T08:50:48;100112.50;;;6.88;100.00
20987;BME280;10652;50.306;8.570;2023-02-12T08:54:50;100110.78;;;6.98;100.00
20987;BME280;10652;50.306;8.570;2023-02-12T08:58:52;100109.03;;;7.14;100.00
20987;BME280;10652;50.306;8.570;2023-02-12T09:02:54;100107.28;;;7.32;100.00
20987;BME280;10652;50.306;8.570;2023-02-12T09:06:56;100109.00;;;7.46;100.00
20987;BME280;10652;50.306;8.570;2023-02-12T09:10:58;100116.84;;;7.56;100.00
20987;BME280;10652;50.306;8.570;2023-02-12T09:15:00;100111.59;;;7.59;100.00
20987;BME280;10652;50.306;8.570;2023-02-12T09:19:03;100113.34;;;7.60;100.00
20987;BME280;10652;50.306;8.570;2023-02-12T09:23:06;100108.97;;;7.65;100.00
20987;BME280;10652;50.306;8.570;2023-02-12T09:27:08;100108.06;;;7.77;100.00
20987;BME280;10652;50.306;8.570;2023-02-12T09:31:13;100108.91;;;7.93;99.89
20987;BME280;10652;50.306;8.570;2023-02-12T09:35:16;100111.41;;;8.14;99.73
20987;BME280;10652;50.306;8.570;2023-02-12T09:39:19;100101.81;;;8.23;99.02
20987;BME280;10652;50.306;8.570;2023-02-12T09:43:35;100113.09;;;8.39;97.19
20987;BME280;10652;50.306;8.570;2023-02-12T09:47:58;100106.94;;;8.46;96.81
20987;BME280;10652;50.306;8.570;2023-02-12T09:52:05;100121.72;;;8.62;96.31
20987;BME280;10652;50.306;8.570;2023-02-12T09:56:13;100113.66;;;8.88;95.57
20987;BME280;10652;50.306;8.570;2023-02-12T10:00:27;100105.63;;;9.09;93.61
20987;BME280;10652;50.306;8.570;2023-02-12T10:04:31;100108.28;;;9.05;92.11
20987;BME280;10652;50.306;8.570;2023-02-12T10:13:07;100118.81;;;9.00;90.81
20987;BME280;10652;50.306;8.570;2023-02-12T10:25:58;100117.13;;;8.93;89.36
20987;BME280;10652;50.306;8.570;2023-02-12T10:30:13;100114.56;;;8.83;89.94
20987;BME280;10652;50.306;8.570;2023-02-12T10:34:20;100118.91;;;8.88;90.68
20987;BME280;10652;50.306;8.570;2023-02-12T10:38:28;100121.53;;;8.87;89.21
20987;BME280;10652;50.306;8.570;2023-02-12T10:42:39;100113.66;;;8.87;89.43
20987;BME280;10652;50.306;8.570;2023-02-12T10:46:42;100106.59;;;8.98;90.19
20987;BME280;10652;50.306;8.570;2023-02-12T10:54:59;100106.94;;;8.46;89.03
20987;BME280;10652;50.306;8.570;2023-02-12T10:59:02;100096.41;;;8.57;92.46
20987;BME280;10652;50.306;8.570;2023-02-12T11:07:09;100090.13;;;8.81;92.33
20987;BME280;10652;50.306;8.570;2023-02-12T11:11:29;100093.69;;;8.67;89.77
20987;BME280;10652;50.306;8.570;2023-02-12T11:15:37;100083.31;;;8.55;90.95
20987;BME280;10652;50.306;8.570;2023-02-12T11:20:01;100081.53;;;8.60;92.04
20987;BME280;10652;50.306;8.570;2023-02-12T11:24:27;100077.94;;;8.74;92.75
20987;BME280;10652;50.306;8.570;2023-02-12T11:28:33;100062.19;;;8.80;92.02
20987;BME280;10652;50.306;8.570;2023-02-12T11:32:36;100066.41;;;8.96;92.17
20987;BME280;10652;50.306;8.570;2023-02-12T11:36:52;100074.41;;;8.78;89.86
20987;BME280;10652;50.306;8.570;2023-02-12T11:40:58;100065.78;;;8.65;92.60
20987;BME280;10652;50.306;8.570;2023-02-12T11:45:01;100057.88;;;8.71;92.76
20987;BME280;10652;50.306;8.570;2023-02-12T11:49:04;100049.03;;;8.83;92.50
20987;BME280;10652;50.306;8.570;2023-02-12T11:53:08;100058.69;;;8.78;91.61
20987;BME280;10652;50.306;8.570;2023-02-12T11:57:52;100048.34;;;8.59;91.75
20987;BME280;10652;50.306;8.570;2023-02-12T12:01:53;100045.78;;;8.53;92.60
20987;BME280;10652;50.306;8.570;2023-02-12T12:06:05;100054.44;;;8.60;92.60
20987;BME280;10652;50.306;8.570;2023-02-12T12:10:58;100051.78;;;8.67;92.74
20987;BME280;10652;50.306;8.570;2023-02-12T12:15:02;100044.72;;;8.79;92.77
20987;BME280;10652;50.306;8.570;2023-02-12T12:19:33;100042.88;;;8.88;92.15
20987;BME280;10652;50.306;8.570;2023-02-12T12:23:58;100041.34;;;8.58;90.70
20987;BME280;10652;50.306;8.570;2023-02-12T12:28:10;100038.91;;;8.36;92.64
20987;BME280;10652;50.306;8.570;2023-02-12T12:32:18;100036.25;;;8.43;93.77
20987;BME280;10652;50.306;8.570;2023-02-12T12:37:00;100036.25;;;8.43;93.60
20987;BME280;10652;50.306;8.570;2023-02-12T12:41:23;100038.00;;;8.44;93.17
20987;BME280;10652;50.306;8.570;2023-02-12T12:49:50;100029.81;;;8.84;93.68
20987;BME280;10652;50.306;8.570;2023-02-12T12:58:11;100028.84;;;8.97;90.71
20987;BME280;10652;50.306;8.570;2023-02-12T13:15:26;99998.25;;;8.96;86.82
20987;BME280;10652;50.306;8.570;2023-02-12T13:24:02;99992.19;;;8.91;86.17
20987;BME280;10652;50.306;8.570;2023-02-12T13:28:18;99990.53;;;8.81;87.38
20987;BME280;10652;50.306;8.570;2023-02-12T13:32:34;100000.16;;;8.79;87.50
20987;BME280;10652;50.306;8.570;2023-02-12T13:36:39;99995.97;;;8.56;89.13
20987;BME280;10652;50.306;8.570;2023-02-12T13:40:42;99997.84;;;8.36;91.13
20987;BME280;10652;50.306;8.570;2023-02-12T13:53:38;99995.50;;;7.88;97.57
20987;BME280;10652;50.306;8.570;2023-02-12T14:02:40;99993.06;;;7.48;100.00
20987;BME280;10652;50.306;8.570;2023-02-12T14:11:15;99991.41;;;7.26;100.00
20987;BME280;10652;50.306;8.570;2023-02-12T14:15:29;99987.94;;;7.10;100.00
20987;BME280;10652;50.306;8.570;2023-02-12T14:23:51;99989.72;;;7.04;100.00
20987;BME280;10652;50.306;8.570;2023-02-12T14:28:06;99991.44;;;7.05;100.00
20987;BME280;10652;50.306;8.570;2023-02-12T14:33:08;99990.56;;;7.03;100.00
20987;BME280;10652;50.306;8.570;2023-02-12T14:37:17;99988.81;;;7.06;100.00
20987;BME280;10652;50.306;8.570;2023-02-12T14:41:35;99981.00;;;7.08;100.00
20987;BME280;10652;50.306;8.570;2023-02-12T14:45:44;99986.22;;;7.08;100.00
20987;BME280;10652;50.306;8.570;2023-02-12T14:49:48;99985.31;;;7.09;100.00
20987;BME280;10652;50.306;8.570;2023-02-12T14:53:53;99987.06;;;7.05;100.00
20987;BME280;10652;50.306;8.570;2023-02-12T14:57:59;99997.56;;;6.93;100.00
20987;BME280;10652;50.306;8.570;2023-02-12T15:02:04;99987.94;;;7.00;100.00
20987;BME280;10652;50.306;8.570;2023-02-12T15:06:19;99995.81;;;7.03;100.00
20987;BME280;10652;50.306;8.570;2023-02-12T15:10:34;99992.31;;;7.07;100.00
20987;BME280;10652;50.306;8.570;2023-02-12T15:14:47;99986.19;;;7.11;100.00
20987;BME280;10652;50.306;8.570;2023-02-12T15:19:25;99986.22;;;6.96;100.00
20987;BME280;10652;50.306;8.570;2023-02-12T15:23:40;99990.59;;;6.89;100.00
20987;BME280;10652;50.306;8.570;2023-02-12T15:27:46;99981.03;;;6.89;100.00
20987;BME280;10652;50.306;8.570;2023-02-12T15:32:01;99984.50;;;6.85;100.00
20987;BME280;10652;50.306;8.570;2023-02-12T15:36:04;99982.78;;;6.75;100.00
20987;BME280;10652;50.306;8.570;2023-02-12T15:40:13;99984.53;;;6.67;100.00
20987;BME280;10652;50.306;8.570;2023-02-12T15:44:26;99974.06;;;6.58;100.00
20987;BME280;10652;50.306;8.570;2023-02-12T15:48:32;99973.19;;;6.61;100.00
20987;BME280;10652;50.306;8.570;2023-02-12T15:52:37;99981.91;;;6.58;100.00
20987;BME280;10652;50.306;8.570;2023-02-12T15:56:40;99982.78;;;6.62;100.00
20987;BME280;10652;50.306;8.570;2023-02-12T16:00:44;99974.06;;;6.64;100.00
20987;BME280;10652;50.306;8.570;2023-02-12T16:04:49;99981.03;;;6.59;100.00
20987;BME280;10652;50.306;8.570;2023-02-12T16:08:57;99970.56;;;6.50;100.00
20987;BME280;10652;50.306;8.570;2023-02-12T16:13:02;99974.06;;;6.46;100.00
20987;BME280;10652;50.306;8.570;2023-02-12T16:17:20;99968.84;;;6.46;100.00
20987;BME280;10652;50.306;8.570;2023-02-12T16:21:22;99980.16;;;6.43;100.00
20987;BME280;10652;50.306;8.570;2023-02-12T16:25:25;99981.00;;;6.41;100.00
20987;BME280;10652;50.306;8.570;2023-02-12T16:29:29;99976.66;;;6.37;100.00
20987;BME280;10652;50.306;8.570;2023-02-12T16:33:40;99986.25;;;6.38;100.00
20987;BME280;10652;50.306;8.570;2023-02-12T16:37:51;99978.41;;;6.38;100.00
20987;BME280;10652;50.306;8.570;2023-02-12T16:41:55;99987.97;;;6.54;100.00
20987;BME280;10652;50.306;8.570;2023-02-12T16:46:03;99993.19;;;6.72;100.00
20987;BME280;10652;50.306;8.570;2023-02-12T16:50:13;99988.84;;;6.83;100.00
20987;BME280;10652;50.306;8.570;2023-02-12T16:54:29;99996.66;;;6.96;100.00
20987;BME280;10652;50.306;8.570;2023-02-12T16:58:32;99992.34;;;6.95;100.00
20987;BME280;10652;50.306;8.570;2023-02-12T17:02:34;100004.53;;;6.89;100.00
20987;BME280;10652;50.306;8.570;2023-02-12T17:06:39;100003.66;;;6.78;100.00
20987;BME280;10652;50.306;8.570;2023-02-12T17:10:41;100003.66;;;6.66;100.00
20987;BME280;10652;50.306;8.570;2023-02-12T17:14:45;100000.19;;;6.58;100.00
20987;BME280;10652;50.306;8.570;2023-02-12T17:18:48;100014.97;;;6.47;100.00
20987;BME280;10652;50.306;8.570;2023-02-12T17:22:52;100019.28;;;6.31;100.00
20987;BME280;10652;50.306;8.570;2023-02-12T17:26:55;100022.72;;;6.27;100.00
20987;BME280;10652;50.306;8.570;2023-02-12T17:30:57;100017.50;;;6.20;100.00
20987;BME280;10652;50.306;8.570;2023-02-12T17:34:59;100013.16;;;6.22;100.00
20987;BME280;10652;50.306;8.570;2023-02-12T17:39:03;100022.72;;;6.20;100.00
20987;BME280;10652;50.306;8.570;2023-02-12T17:43:06;100021.84;;;6.18;100.00
20987;BME280;10652;50.306;8.570;2023-02-12T17:47:08;100031.41;;;6.14;100.00
20987;BME280;10652;50.306;8.570;2023-02-12T17:51:11;100030.53;;;6.14;100.00
20987;BME280;10652;50.306;8.570;2023-02-12T17:55:13;100030.53;;;6.11;100.00
20987;BME280;10652;50.306;8.570;2023-02-12T17:59:16;100027.91;;;6.06;100.00
20987;BME280;10652;50.306;8.570;2023-02-12T18:03:18;100025.28;;;6.04;100.00
20987;BME280;10652;50.306;8.570;2023-02-12T18:07:20;100034.88;;;6.02;100.00
20987;BME280;10652;50.306;8.570;2023-02-12T18:11:22;100028.75;;;5.94;100.00
20987;BME280;10652;50.306;8.570;2023-02-12T18:15:24;100027.88;;;5.95;100.00
20987;BME280;10652;50.306;8.570;2023-02-12T18:19:27;100029.63;;;5.96;100.00
20987;BME280;10652;50.306;8.570;2023-02-12T18:23:29;100032.22;;;5.96;100.00
20987;BME280;10652;50.306;8.570;2023-02-12T18:27:31;100033.09;;;6.04;100.00
20987;BME280;10652;50.306;8.570;2023-02-12T18:31:33;100033.97;;;6.05;100.00
20987;BME280;10652;50.306;8.570;2023-02-12T18:35:36;100025.31;;;6.06;100.00
20987;BME280;10652;50.306;8.570;2023-02-12T18:39:38;100029.63;;;6.09;100.00
20987;BME280;10652;50.306;8.570;2023-02-12T18:43:41;100026.19;;;6.07;100.00
20987;BME280;10652;50.306;8.570;2023-02-12T18:47:44;100027.94;;;6.15;100.00
20987;BME280;10652;50.306;8.570;2023-02-12T18:51:47;100029.66;;;6.15;100.00
20987;BME280;10652;50.306;8.570;2023-02-12T18:55:49;100035.75;;;6.12;100.00
20987;BME280;10652;50.306;8.570;2023-02-12T18:59:51;100030.56;;;6.27;100.00
20987;BME280;10652;50.306;8.570;2023-02-12T19:03:55;100032.34;;;6.31;100.00
20987;BME280;10652;50.306;8.570;2023-02-12T19:07:58;100026.22;;;6.28;100.00
20987;BME280;10652;50.306;8.570;2023-02-12T19:12:01;100021.84;;;6.16;100.00
20987;BME280;10652;50.306;8.570;2023-02-12T19:16:13;100013.13;;;6.02;100.00
20987;BME280;10652;50.306;8.570;2023-02-12T19:20:16;100017.44;;;5.92;100.00
20987;BME280;10652;50.306;8.570;2023-02-12T19:24:18;100010.47;;;5.85;100.00
20987;BME280;10652;50.306;8.570;2023-02-12T19:28:20;100013.03;;;5.76;100.00
20987;BME280;10652;50.306;8.570;2023-02-12T19:32:22;100013.03;;;5.75;100.00
20987;BME280;10652;50.306;8.570;2023-02-12T19:36:26;100023.50;;;5.88;100.00
20987;BME280;10652;50.306;8.570;2023-02-12T19:40:28;100031.31;;;5.87;100.00
20987;BME280;10652;50.306;8.570;2023-02-12T19:44:30;100019.94;;;5.73;100.00
20987;BME280;10652;50.306;8.570;2023-02-12T19:48:32;100022.59;;;5.74;100.00
20987;BME280;10652;50.306;8.570;2023-02-12T19:52:35;100019.94;;;5.70;100.00
20987;BME280;10652;50.306;8.570;2023-02-12T19:56:38;100016.44;;;5.65;100.00
20987;BME280;10652;50.306;8.570;2023-02-12T20:00:40;100018.19;;;5.63;100.00
20987;BME280;10652;50.306;8.570;2023-02-12T20:04:42;100013.81;;;5.54;100.00
20987;BME280;10652;50.306;8.570;2023-02-12T20:08:44;100022.50;;;5.53;100.00
20987;BME280;10652;50.306;8.570;2023-02-12T20:12:46;100016.38;;;5.48;100.00
20987;BME280;10652;50.306;8.570;2023-02-12T20:16:49;100017.25;;;5.47;100.00
20987;BME280;10652;50.306;8.570;2023-02-12T20:20:54;100014.63;;;5.44;100.00
20987;BME280;10652;50.306;8.570;2023-02-12T20:24:56;100019.00;;;5.49;100.00
20987;BME280;10652;50.306;8.570;2023-02-12T20:28:59;100021.63;;;5.49;100.00
20987;BME280;10652;50.306;8.570;2023-02-12T20:33:05;100024.25;;;5.54;100.00
20987;BME280;10652;50.306;8.570;2023-02-12T20:37:07;100019.91;;;5.56;100.00
20987;BME280;10652;50.306;8.570;2023-02-12T20:41:10;100015.47;;;5.40;100.00
20987;BME280;10652;50.306;8.570;2023-02-12T20:45:12;100022.41;;;5.38;100.00
20987;BME280;10652;50.306;8.570;2023-02-12T20:49:15;100029.31;;;5.33;100.00
20987;BME280;10652;50.306;8.570;2023-02-12T20:53:18;100022.34;;;5.29;100.00
20987;BME280;10652;50.306;8.570;2023-02-12T20:57:20;100031.91;;;5.27;100.00
20987;BME280;10652;50.306;8.570;2023-02-12T21:01:24;100033.69;;;5.31;100.00
20987;BME280;10652;50.306;8.570;2023-02-12T21:05:27;100032.81;;;5.33;100.00
20987;BME280;10652;50.306;8.570;2023-02-12T21:09:29;100037.16;;;5.34;100.00
20987;BME280;10652;50.306;8.570;2023-02-12T21:13:32;100038.03;;;5.35;100.00
20987;BME280;10652;50.306;8.570;2023-02-12T21:17:34;100036.28;;;5.34;100.00
20987;BME280;10652;50.306;8.570;2023-02-12T21:21:37;100047.56;;;5.33;100.00
20987;BME280;10652;50.306;8.570;2023-02-12T21:25:40;100038.03;;;5.35;100.00
20987;BME280;10652;50.306;8.570;2023-02-12T21:29:42;100041.50;;;5.37;100.00
20987;BME280;10652;50.306;8.570;2023-02-12T21:33:46;100046.72;;;5.35;100.00
20987;BME280;10652;50.306;8.570;2023-02-12T21:37:48;100047.59;;;5.31;100.00
20987;BME280;10652;50.306;8.570;2023-02-12T21:41:52;100054.50;;;5.32;100.00
20987;BME280;10652;50.306;8.570;2023-02-12T21:45:55;100057.97;;;5.30;100.00
20987;BME280;10652;50.306;8.570;2023-02-12T21:49:57;100052.75;;;5.28;100.00
20987;BME280;10652;50.306;8.570;2023-02-12T21:54:01;100057.09;;;5.29;100.00
20987;BME280;10652;50.306;8.570;2023-02-12T21:58:04;100055.41;;;5.31;100.00
20987;BME280;10652;50.306;8.570;2023-02-12T22:02:08;100054.53;;;5.37;100.00
20987;BME280;10652;50.306;8.570;2023-02-12T22:06:12;100054.59;;;5.44;100.00
20987;BME280;10652;50.306;8.570;2023-02-12T22:10:14;100047.63;;;5.40;100.00
20987;BME280;10652;50.306;8.570;2023-02-12T22:14:17;100044.13;;;5.37;100.00
20987;BME280;10652;50.306;8.570;2023-02-12T22:18:19;100050.22;;;5.39;100.00
20987;BME280;10652;50.306;8.570;2023-02-12T22:22:21;100050.22;;;5.36;100.00
20987;BME280;10652;50.306;8.570;2023-02-12T22:26:26;100039.75;;;5.33;100.00
20987;BME280;10652;50.306;8.570;2023-02-12T22:30:28;100051.91;;;5.34;100.00
20987;BME280;10652;50.306;8.570;2023-02-12T22:34:30;100040.63;;;5.36;100.00
20987;BME280;10652;50.306;8.570;2023-02-12T22:38:34;100046.81;;;5.52;100.00
20987;BME280;10652;50.306;8.570;2023-02-12T22:42:36;100047.75;;;5.65;100.00
20987;BME280;10652;50.306;8.570;2023-02-12T22:46:40;100048.69;;;5.82;100.00
20987;BME280;10652;50.306;8.570;2023-02-12T22:50:42;100045.25;;;5.92;100.00
20987;BME280;10652;50.306;8.570;2023-02-12T22:54:44;100047.91;;;6.05;100.00
20987;BME280;10652;50.306;8.570;2023-02-12T22:58:46;100056.66;;;6.17;100.00
20987;BME280;10652;50.306;8.570;2023-02-12T23:02:48;100055.78;;;6.21;100.00
20987;BME280;10652;50.306;8.570;2023-02-12T23:06:50;100058.41;;;6.25;100.00